sensor_id;sensor_type;location;lat;lon;timestamp;temperature;humidity
32147;DHT22;32190;49.112;8.598;2023-04-24T00:01:09;17.90;51.40
32147;DHT22;32190;49.112;8.598;2023-04-24T00:07:00;17.90;51.20
32147;DHT22;32190;49.112;8.598;2023-04-24T00:12:51;17.90;51.60
32147;DHT22;32190;49.112;8.598;2023-04-24T00:18:41;17.90;51.20
32147;DHT22;32190;49.112;8.598;2023-04-24T00:24:32;17.80;51.20
32147;DHT22;32190;49.112;8.598;2023-04-24T00:30:22;17.80;51.20
32147;DHT22;32190;49.112;8.598;2023-04-24T00:36:13;17.80;51.30
32147;DHT22;32190;49.112;8.598;2023-04-24T00:42:04;17.80;51.30
32147;DHT22;32190;49.112;8.598;2023-04-24T00:47:56;17.80;51.30
32147;DHT22;32190;49.112;8.598;2023-04-24T00:53:47;17.70;51.30
32147;DHT22;32190;49.112;8.598;2023-04-24T00:59:38;17.70;51.30
32147;DHT22;32190;49.112;8.598;2023-04-24T01:05:31;17.70;51.30
32147;DHT22;32190;49.112;8.598;2023-04-24T01:11:22;17.60;51.30
32147;DHT22;32190;49.112;8.598;2023-04-24T01:17:13;17.60;51.30
32147;DHT22;32190;49.112;8.598;2023-04-24T01:23:03;17.60;51.40
32147;DHT22;32190;49.112;8.598;2023-04-24T01:28:54;17.50;51.30
32147;DHT22;32190;49.112;8.598;2023-04-24T01:34:45;17.50;51.30
32147;DHT22;32190;49.112;8.598;2023-04-24T01:40:36;17.50;51.30
32147;DHT22;32190;49.112;8.598;2023-04-24T01:46:27;17.50;51.30
32147;DHT22;32190;49.112;8.598;2023-04-24T01:52:18;17.50;51.40
32147;DHT22;32190;49.112;8.598;2023-04-24T01:58:09;17.50;51.40
32147;DHT22;32190;49.112;8.598;2023-04-24T02:03:59;17.50;51.50
32147;DHT22;32190;49.112;8.598;2023-04-24T02:09:50;17.50;51.40
32147;DHT22;32190;49.112;8.598;2023-04-24T02:15:41;17.50;51.40
32147;DHT22;32190;49.112;8.598;2023-04-24T02:21:31;17.40;51.50
32147;DHT22;32190;49.112;8.598;2023-04-24T02:27:23;17.40;51.50
32147;DHT22;32190;49.112;8.598;2023-04-24T02:33:13;17.40;51.50
32147;DHT22;32190;49.112;8.598;2023-04-24T02:39:04;17.30;51.50
32147;DHT22;32190;49.112;8.598;2023-04-24T02:44:54;17.20;51.70
32147;DHT22;32190;49.112;8.598;2023-04-24T02:50:45;17.20;51.90
32147;DHT22;32190;49.112;8.598;2023-04-24T02:56:36;17.10;51.80
32147;DHT22;32190;49.112;8.598;2023-04-24T03:02:26;17.10;52.70
32147;DHT22;32190;49.112;8.598;2023-04-24T03:08:17;17.10;52.20
32147;DHT22;32190;49.112;8.598;2023-04-24T03:14:07;17.10;52.20
32147;DHT22;32190;49.112;8.598;2023-04-24T03:19:58;17.10;52.40
32147;DHT22;32190;49.112;8.598;2023-04-24T03:25:49;17.10;52.70
32147;DHT22;32190;49.112;8.598;2023-04-24T03:31:39;17.00;53.50
32147;DHT22;32190;49.112;8.598;2023-04-24T03:37:30;17.00;53.00
32147;DHT22;32190;49.112;8.598;2023-04-24T03:43:21;16.70;52.80
32147;DHT22;32190;49.112;8.598;2023-04-24T03:49:11;16.50;53.10
32147;DHT22;32190;49.112;8.598;2023-04-24T03:55:02;16.40;53.40
32147;DHT22;32190;49.112;8.598;2023-04-24T04:00:53;16.30;53.40
32147;DHT22;32190;49.112;8.598;2023-04-24T04:06:43;16.30;53.40
32147;DHT22;32190;49.112;8.598;2023-04-24T04:12:37;16.30;53.50
32147;DHT22;32190;49.112;8.598;2023-04-24T04:18:28;16.30;53.50
32147;DHT22;32190;49.112;8.598;2023-04-24T04:24:19;16.40;53.50
32147;DHT22;32190;49.112;8.598;2023-04-24T04:30:11;16.40;53.40
32147;DHT22;32190;49.112;8.598;2023-04-24T04:36:01;16.30;53.30
32147;DHT22;32190;49.112;8.598;2023-04-24T04:41:54;16.30;53.40
32147;DHT22;32190;49.112;8.598;2023-04-24T04:47:44;16.30;53.40
32147;DHT22;32190;49.112;8.598;2023-04-24T04:53:35;16.20;53.30
32147;DHT22;32190;49.112;8.598;2023-04-24T04:59:26;16.20;53.20
32147;DHT22;32190;49.112;8.598;2023-04-24T05:05:17;16.20;53.30
32147;DHT22;32190;49.112;8.598;2023-04-24T05:11:08;16.00;53.50
32147;DHT22;32190;49.112;8.598;2023-04-24T05:16:58;16.00;53.60
32147;DHT22;32190;49.112;8.598;2023-04-24T05:22:50;16.00;53.70
32147;DHT22;32190;49.112;8.598;2023-04-24T05:28:41;16.10;54.00
32147;DHT22;32190;49.112;8.598;2023-04-24T05:34:32;16.30;54.40
32147;DHT22;32190;49.112;8.598;2023-04-24T05:40:22;16.70;54.40
32147;DHT22;32190;49.112;8.598;2023-04-24T05:46:32;17.00;53.90
32147;DHT22;32190;49.112;8.598;2023-04-24T05:52:23;17.10;53.70
32147;DHT22;32190;49.112;8.598;2023-04-24T05:58:14;17.20;53.30
32147;DHT22;32190;49.112;8.598;2023-04-24T06:04:04;17.20;53.10
32147;DHT22;32190;49.112;8.598;2023-04-24T06:09:56;17.10;53.00
32147;DHT22;32190;49.112;8.598;2023-04-24T06:15:47;17.00;53.10
32147;DHT22;32190;49.112;8.598;2023-04-24T06:21:40;16.90;53.00
32147;DHT22;32190;49.112;8.598;2023-04-24T06:27:31;16.80;53.00
32147;DHT22;32190;49.112;8.598;2023-04-24T06:33:21;16.80;53.10
32147;DHT22;32190;49.112;8.598;2023-04-24T06:39:12;16.90;53.30
32147;DHT22;32190;49.112;8.598;2023-04-24T06:45:03;17.00;53.00
32147;DHT22;32190;49.112;8.598;2023-04-24T06:50:55;17.20;52.80
32147;DHT22;32190;49.112;8.598;2023-04-24T06:56:46;17.50;52.20
32147;DHT22;32190;49.112;8.598;2023-04-24T07:02:38;17.70;52.00
32147;DHT22;32190;49.112;8.598;2023-04-24T07:08:29;17.80;51.70
32147;DHT22;32190;49.112;8.598;2023-04-24T07:14:20;17.80;51.20
32147;DHT22;32190;49.112;8.598;2023-04-24T07:20:14;17.70;50.90
32147;DHT22;32190;49.112;8.598;2023-04-24T07:26:06;17.60;50.10
32147;DHT22;32190;49.112;8.598;2023-04-24T07:31:56;17.40;50.50
32147;DHT22;32190;49.112;8.598;2023-04-24T07:37:47;17.30;50.60
32147;DHT22;32190;49.112;8.598;2023-04-24T07:43:38;17.20;50.40
32147;DHT22;32190;49.112;8.598;2023-04-24T07:49:28;17.10;50.60
32147;DHT22;32190;49.112;8.598;2023-04-24T07:55:19;17.00;50.40
32147;DHT22;32190;49.112;8.598;2023-04-24T08:01:15;16.80;50.40
32147;DHT22;32190;49.112;8.598;2023-04-24T08:07:06;16.70;50.20
32147;DHT22;32190;49.112;8.598;2023-04-24T08:12:56;16.60;50.60
32147;DHT22;32190;49.112;8.598;2023-04-24T08:18:47;16.50;50.40
32147;DHT22;32190;49.112;8.598;2023-04-24T08:24:37;16.50;50.80
32147;DHT22;32190;49.112;8.598;2023-04-24T08:30:28;16.40;50.80
32147;DHT22;32190;49.112;8.598;2023-04-24T08:36:19;16.40;50.70
32147;DHT22;32190;49.112;8.598;2023-04-24T08:42:11;16.40;50.80
32147;DHT22;32190;49.112;8.598;2023-04-24T08:48:04;16.40;50.80
32147;DHT22;32190;49.112;8.598;2023-04-24T08:53:57;16.40;50.80
32147;DHT22;32190;49.112;8.598;2023-04-24T08:59:48;16.50;50.90
32147;DHT22;32190;49.112;8.598;2023-04-24T09:05:39;16.60;50.90
32147;DHT22;32190;49.112;8.598;2023-04-24T09:11:37;16.80;50.70
32147;DHT22;32190;49.112;8.598;2023-04-24T09:17:29;16.80;50.20
32147;DHT22;32190;49.112;8.598;2023-04-24T09:23:20;16.90;49.80
32147;DHT22;32190;49.112;8.598;2023-04-24T09:29:26;17.00;49.60
32147;DHT22;32190;49.112;8.598;2023-04-24T09:35:17;16.90;49.60
32147;DHT22;32190;49.112;8.598;2023-04-24T09:41:08;16.80;49.40
32147;DHT22;32190;49.112;8.598;2023-04-24T09:47:11;16.70;49.20
32147;DHT22;32190;49.112;8.598;2023-04-24T09:53:06;16.60;48.90
32147;DHT22;32190;49.112;8.598;2023-04-24T09:59:20;16.50;49.30
32147;DHT22;32190;49.112;8.598;2023-04-24T10:05:11;16.40;48.60
32147;DHT22;32190;49.112;8.598;2023-04-24T10:11:02;16.40;49.40
32147;DHT22;32190;49.112;8.598;2023-04-24T10:16:54;16.50;49.40
32147;DHT22;32190;49.112;8.598;2023-04-24T10:22:49;16.60;48.90
32147;DHT22;32190;49.112;8.598;2023-04-24T10:28:45;16.80;49.10
32147;DHT22;32190;49.112;8.598;2023-04-24T10:34:36;16.90;48.80
32147;DHT22;32190;49.112;8.598;2023-04-24T10:40:30;16.90;48.30
32147;DHT22;32190;49.112;8.598;2023-04-24T10:46:22;16.90;48.50
32147;DHT22;32190;49.112;8.598;2023-04-24T10:52:15;16.80;48.60
32147;DHT22;32190;49.112;8.598;2023-04-24T10:58:07;16.80;48.70
32147;DHT22;32190;49.112;8.598;2023-04-24T11:04:01;16.70;49.00
32147;DHT22;32190;49.112;8.598;2023-04-24T11:09:58;16.60;49.10
32147;DHT22;32190;49.112;8.598;2023-04-24T11:22:16;16.60;49.50
32147;DHT22;32190;49.112;8.598;2023-04-24T11:28:14;16.70;49.20
32147;DHT22;32190;49.112;8.598;2023-04-24T11:34:16;16.70;49.20
32147;DHT22;32190;49.112;8.598;2023-04-24T11:40:14;16.70;49.00
32147;DHT22;32190;49.112;8.598;2023-04-24T11:46:16;16.70;49.10
32147;DHT22;32190;49.112;8.598;2023-04-24T11:52:16;16.70;49.40
32147;DHT22;32190;49.112;8.598;2023-04-24T11:58:07;16.60;49.60
32147;DHT22;32190;49.112;8.598;2023-04-24T12:03:59;16.50;49.90
32147;DHT22;32190;49.112;8.598;2023-04-24T12:09:58;16.60;49.60
32147;DHT22;32190;49.112;8.598;2023-04-24T12:15:52;16.60;49.90
32147;DHT22;32190;49.112;8.598;2023-04-24T12:21:59;16.70;50.00
32147;DHT22;32190;49.112;8.598;2023-04-24T12:27:55;16.80;50.10
32147;DHT22;32190;49.112;8.598;2023-04-24T12:33:46;17.00;49.40
32147;DHT22;32190;49.112;8.598;2023-04-24T12:39:36;17.00;49.70
32147;DHT22;32190;49.112;8.598;2023-04-24T12:45:27;17.20;49.30
32147;DHT22;32190;49.112;8.598;2023-04-24T12:51:28;17.20;49.10
32147;DHT22;32190;49.112;8.598;2023-04-24T12:57:18;17.30;48.70
32147;DHT22;32190;49.112;8.598;2023-04-24T13:03:36;17.30;48.50
32147;DHT22;32190;49.112;8.598;2023-04-24T13:09:45;17.30;48.60
32147;DHT22;32190;49.112;8.598;2023-04-24T13:15:39;17.50;48.60
32147;DHT22;32190;49.112;8.598;2023-04-24T13:21:40;17.50;48.50
32147;DHT22;32190;49.112;8.598;2023-04-24T13:27:32;17.50;48.40
32147;DHT22;32190;49.112;8.598;2023-04-24T13:33:34;17.60;48.00
32147;DHT22;32190;49.112;8.598;2023-04-24T13:39:42;17.60;47.90
32147;DHT22;32190;49.112;8.598;2023-04-24T13:45:36;17.60;47.20
32147;DHT22;32190;49.112;8.598;2023-04-24T13:57:28;17.70;47.30
32147;DHT22;32190;49.112;8.598;2023-04-24T14:03:21;17.70;47.10
32147;DHT22;32190;49.112;8.598;2023-04-24T14:09:11;17.80;47.60
32147;DHT22;32190;49.112;8.598;2023-04-24T14:15:04;17.80;47.00
32147;DHT22;32190;49.112;8.598;2023-04-24T14:20:55;17.70;46.60
32147;DHT22;32190;49.112;8.598;2023-04-24T14:26:45;17.80;47.00
32147;DHT22;32190;49.112;8.598;2023-04-24T14:32:37;17.80;46.40
32147;DHT22;32190;49.112;8.598;2023-04-24T14:38:28;17.80;46.30
32147;DHT22;32190;49.112;8.598;2023-04-24T14:44:19;17.90;46.40
32147;DHT22;32190;49.112;8.598;2023-04-24T14:50:10;18.20;46.70
32147;DHT22;32190;49.112;8.598;2023-04-24T14:56:01;18.50;46.70
32147;DHT22;32190;49.112;8.598;2023-04-24T15:01:51;18.80;46.50
32147;DHT22;32190;49.112;8.598;2023-04-24T15:07:43;19.00;46.00
32147;DHT22;32190;49.112;8.598;2023-04-24T15:13:33;19.10;45.50
32147;DHT22;32190;49.112;8.598;2023-04-24T15:19:24;19.20;45.30
32147;DHT22;32190;49.112;8.598;2023-04-24T15:25:14;19.20;45.00
32147;DHT22;32190;49.112;8.598;2023-04-24T15:31:05;19.00;45.10
32147;DHT22;32190;49.112;8.598;2023-04-24T15:36:55;18.90;45.20
32147;DHT22;32190;49.112;8.598;2023-04-24T15:42:46;18.90;45.40
32147;DHT22;32190;49.112;8.598;2023-04-24T15:48:37;18.80;45.40
32147;DHT22;32190;49.112;8.598;2023-04-24T15:54:29;18.80;45.50
32147;DHT22;32190;49.112;8.598;2023-04-24T16:00:19;18.90;45.60
32147;DHT22;32190;49.112;8.598;2023-04-24T16:06:11;18.90;45.70
32147;DHT22;32190;49.112;8.598;2023-04-24T16:12:01;18.90;46.00
32147;DHT22;32190;49.112;8.598;2023-04-24T16:17:52;18.90;45.90
32147;DHT22;32190;49.112;8.598;2023-04-24T16:23:43;18.80;45.70
32147;DHT22;32190;49.112;8.598;2023-04-24T16:29:33;18.60;46.00
32147;DHT22;32190;49.112;8.598;2023-04-24T16:35:24;18.50;46.30
32147;DHT22;32190;49.112;8.598;2023-04-24T16:41:14;18.40;46.30
32147;DHT22;32190;49.112;8.598;2023-04-24T16:47:06;18.30;46.60
32147;DHT22;32190;49.112;8.598;2023-04-24T16:52:56;18.40;46.90
32147;DHT22;32190;49.112;8.598;2023-04-24T16:58:47;18.40;46.90
32147;DHT22;32190;49.112;8.598;2023-04-24T17:04:38;18.50;47.10
32147;DHT22;32190;49.112;8.598;2023-04-24T17:10:28;18.50;47.50
32147;DHT22;32190;49.112;8.598;2023-04-24T17:16:19;18.50;47.40
32147;DHT22;32190;49.112;8.598;2023-04-24T17:22:09;18.50;47.50
32147;DHT22;32190;49.112;8.598;2023-04-24T17:28:00;18.50;47.80
32147;DHT22;32190;49.112;8.598;2023-04-24T17:33:51;18.30;47.90
32147;DHT22;32190;49.112;8.598;2023-04-24T17:39:41;18.30;48.20
32147;DHT22;32190;49.112;8.598;2023-04-24T17:45:32;18.20;48.30
32147;DHT22;32190;49.112;8.598;2023-04-24T17:51:22;18.20;48.40
32147;DHT22;32190;49.112;8.598;2023-04-24T17:57:13;18.20;48.50
32147;DHT22;32190;49.112;8.598;2023-04-24T18:03:05;18.20;48.60
32147;DHT22;32190;49.112;8.598;2023-04-24T18:08:56;18.10;48.70
32147;DHT22;32190;49.112;8.598;2023-04-24T18:14:46;18.10;48.90
32147;DHT22;32190;49.112;8.598;2023-04-24T18:20:37;18.00;48.90
32147;DHT22;32190;49.112;8.598;2023-04-24T18:26:28;18.00;49.10
32147;DHT22;32190;49.112;8.598;2023-04-24T18:32:18;18.00;49.20
32147;DHT22;32190;49.112;8.598;2023-04-24T18:38:09;17.90;49.30
32147;DHT22;32190;49.112;8.598;2023-04-24T18:44:00;17.90;49.40
32147;DHT22;32190;49.112;8.598;2023-04-24T18:49:51;17.80;49.40
32147;DHT22;32190;49.112;8.598;2023-04-24T18:55:41;17.80;49.50
32147;DHT22;32190;49.112;8.598;2023-04-24T19:01:32;17.70;49.40
32147;DHT22;32190;49.112;8.598;2023-04-24T19:07:24;17.60;49.60
32147;DHT22;32190;49.112;8.598;2023-04-24T19:13:14;17.60;49.70
32147;DHT22;32190;49.112;8.598;2023-04-24T19:19:05;17.50;49.80
32147;DHT22;32190;49.112;8.598;2023-04-24T19:24:56;17.50;49.80
32147;DHT22;32190;49.112;8.598;2023-04-24T19:30:47;17.50;49.90
32147;DHT22;32190;49.112;8.598;2023-04-24T19:36:38;17.40;50.00
32147;DHT22;32190;49.112;8.598;2023-04-24T19:42:29;17.30;50.10
32147;DHT22;32190;49.112;8.598;2023-04-24T19:48:20;17.20;50.10
32147;DHT22;32190;49.112;8.598;2023-04-24T19:54:10;17.20;50.20
32147;DHT22;32190;49.112;8.598;2023-04-24T20:00:01;17.20;50.20
32147;DHT22;32190;49.112;8.598;2023-04-24T20:05:51;17.10;50.20
32147;DHT22;32190;49.112;8.598;2023-04-24T20:11:42;17.10;50.20
32147;DHT22;32190;49.112;8.598;2023-04-24T20:17:34;17.00;50.20
32147;DHT22;32190;49.112;8.598;2023-04-24T20:23:25;17.00;50.30
32147;DHT22;32190;49.112;8.598;2023-04-24T20:29:16;16.90;50.50
32147;DHT22;32190;49.112;8.598;2023-04-24T20:35:07;16.90;50.50
32147;DHT22;32190;49.112;8.598;2023-04-24T20:40:57;16.90;50.60
32147;DHT22;32190;49.112;8.598;2023-04-24T20:46:49;16.80;50.70
32147;DHT22;32190;49.112;8.598;2023-04-24T20:52:40;16.70;50.70
32147;DHT22;32190;49.112;8.598;2023-04-24T20:58:30;16.70;50.70
32147;DHT22;32190;49.112;8.598;2023-04-24T21:04:21;16.70;50.80
32147;DHT22;32190;49.112;8.598;2023-04-24T21:10:11;16.60;50.80
32147;DHT22;32190;49.112;8.598;2023-04-24T21:16:03;16.60;50.90
32147;DHT22;32190;49.112;8.598;2023-04-24T21:21:53;16.50;50.90
32147;DHT22;32190;49.112;8.598;2023-04-24T21:27:44;16.50;51.00
32147;DHT22;32190;49.112;8.598;2023-04-24T21:33:35;16.50;51.10
32147;DHT22;32190;49.112;8.598;2023-04-24T21:39:25;16.50;51.20
32147;DHT22;32190;49.112;8.598;2023-04-24T21:45:16;16.50;51.20
32147;DHT22;32190;49.112;8.598;2023-04-24T21:51:07;16.40;51.20
32147;DHT22;32190;49.112;8.598;2023-04-24T21:56:57;16.30;51.20
32147;DHT22;32190;49.112;8.598;2023-04-24T22:02:48;16.30;51.20
32147;DHT22;32190;49.112;8.598;2023-04-24T22:08:39;16.20;51.30
32147;DHT22;32190;49.112;8.598;2023-04-24T22:14:31;16.10;51.40
32147;DHT22;32190;49.112;8.598;2023-04-24T22:20:22;16.10;51.50
32147;DHT22;32190;49.112;8.598;2023-04-24T22:26:12;16.00;51.60
32147;DHT22;32190;49.112;8.598;2023-04-24T22:32:03;16.00;51.80
32147;DHT22;32190;49.112;8.598;2023-04-24T22:37:55;16.00;51.80
32147;DHT22;32190;49.112;8.598;2023-04-24T22:43:45;16.00;51.80
32147;DHT22;32190;49.112;8.598;2023-04-24T22:49:36;16.00;51.80
32147;DHT22;32190;49.112;8.598;2023-04-24T22:55:27;15.90;51.80
32147;DHT22;32190;49.112;8.598;2023-04-24T23:01:17;15.90;51.80
32147;DHT22;32190;49.112;8.598;2023-04-24T23:07:08;15.90;51.80
32147;DHT22;32190;49.112;8.598;2023-04-24T23:12:58;15.80;51.70
32147;DHT22;32190;49.112;8.598;2023-04-24T23:18:49;15.70;51.70
32147;DHT22;32190;49.112;8.598;2023-04-24T23:24:39;15.70;51.70
32147;DHT22;32190;49.112;8.598;2023-04-24T23:30:30;15.70;51.70
32147;DHT22;32190;49.112;8.598;2023-04-24T23:36:20;15.60;51.60
32147;DHT22;32190;49.112;8.598;2023-04-24T23:42:11;15.60;51.60
32147;DHT22;32190;49.112;8.598;2023-04-24T23:48:02;15.50;51.60
32147;DHT22;32190;49.112;8.598;2023-04-24T23:53:53;15.50;51.50
32147;DHT22;32190;49.112;8.598;2023-04-24T23:59:44;15.50;51.70
